createdAt,value
2019-02-19T00:01:10.114Z,41.45
2019-02-19T00:06:12.759Z,41.50
2019-02-19T00:11:15.426Z,41.44
2019-02-19T00:16:18.072Z,41.37
2019-02-19T00:21:20.742Z,41.34
2019-02-19T00:26:23.404Z,41.34
2019-02-19T00:31:26.050Z,41.31
2019-02-19T00:36:28.700Z,41.27
2019-02-19T00:41:31.344Z,41.26
2019-02-19T00:46:33.996Z,41.20
2019-02-19T00:51:36.656Z,41.15
2019-02-19T00:56:39.304Z,41.13
2019-02-19T01:01:41.971Z,41.11
2019-02-19T01:06:44.644Z,41.04
2019-02-19T01:21:51.997Z,41.03
2019-02-19T01:26:54.649Z,40.94
2019-02-19T01:31:57.353Z,40.97
2019-02-19T01:37:00.012Z,40.86
2019-02-19T01:42:02.672Z,40.85
2019-02-19T01:47:05.333Z,40.79
2019-02-19T01:52:08.004Z,40.77
2019-02-19T01:57:10.667Z,40.74
2019-02-19T02:02:13.321Z,40.69
2019-02-19T02:07:15.986Z,40.63
2019-02-19T02:12:18.648Z,40.54
2019-02-19T02:17:21.311Z,40.55
2019-02-19T02:22:23.976Z,40.49
2019-02-19T02:27:26.624Z,40.42
2019-02-19T02:32:29.433Z,40.39
2019-02-19T02:37:32.114Z,40.39
2019-02-19T02:42:34.800Z,40.35
2019-02-19T02:47:37.450Z,40.33
2019-02-19T02:52:40.114Z,40.28
2019-02-19T02:57:42.782Z,40.22
2019-02-19T03:02:45.427Z,40.18
2019-02-19T03:07:49.744Z,40.20
2019-02-19T03:12:52.519Z,40.10
2019-02-19T03:17:55.191Z,40.06
2019-02-19T03:22:57.856Z,40.02
2019-02-19T03:28:00.522Z,39.98
2019-02-19T03:33:03.174Z,39.93
2019-02-19T03:38:05.841Z,39.89
2019-02-19T03:43:08.569Z,39.86
2019-02-19T03:48:11.239Z,39.81
2019-02-19T03:53:13.919Z,39.78
2019-02-19T03:58:16.590Z,39.72
2019-02-19T04:03:19.378Z,39.67
2019-02-19T04:08:22.035Z,39.64
2019-02-19T04:13:24.715Z,39.60
2019-02-19T04:18:27.383Z,39.53
2019-02-19T04:23:30.048Z,39.50
2019-02-19T04:28:32.708Z,39.50
2019-02-19T04:33:35.372Z,39.45
2019-02-19T04:38:38.042Z,39.44
2019-02-19T04:43:40.712Z,39.37
2019-02-19T04:48:43.396Z,39.37
2019-02-19T04:53:46.064Z,39.31
2019-02-19T04:58:48.737Z,39.21
2019-02-19T05:03:51.384Z,39.23
2019-02-19T05:08:54.058Z,39.15
2019-02-19T05:13:56.710Z,39.10
2019-02-19T05:18:59.384Z,39.01
2019-02-19T05:24:02.077Z,38.96
2019-02-19T05:29:04.756Z,38.93
2019-02-19T05:34:07.423Z,39.59
2019-02-19T05:39:10.076Z,40.78
2019-02-19T05:44:12.719Z,44.08
2019-02-19T05:49:15.388Z,44.95
2019-02-19T05:54:18.068Z,44.35
2019-02-19T05:59:20.730Z,43.71
2019-02-19T06:04:23.388Z,43.17
2019-02-19T06:09:26.090Z,42.91
2019-02-19T06:14:28.753Z,42.54
2019-02-19T06:19:31.406Z,42.34
2019-02-19T06:24:34.054Z,42.06
2019-02-19T06:29:36.742Z,41.89
2019-02-19T06:34:39.396Z,41.68
2019-02-19T06:39:42.176Z,41.54
2019-02-19T06:44:44.844Z,41.44
2019-02-19T06:49:47.544Z,41.34
2019-02-19T06:54:50.213Z,41.25
2019-02-19T06:59:52.879Z,41.16
2019-02-19T07:04:55.822Z,41.07
2019-02-19T07:09:58.488Z,40.96
2019-02-19T07:15:01.128Z,40.87
2019-02-19T07:20:04.852Z,40.77
2019-02-19T07:25:11.092Z,40.68
2019-02-19T07:30:13.736Z,40.60
2019-02-19T07:35:16.436Z,40.45
2019-02-19T07:40:19.180Z,40.35
2019-02-19T07:45:21.857Z,40.26
2019-02-19T07:50:24.523Z,40.13
2019-02-19T07:55:27.173Z,40.02
2019-02-19T08:00:29.856Z,39.92
2019-02-19T08:05:32.529Z,39.85
2019-02-19T08:10:35.192Z,39.79
2019-02-19T08:15:37.868Z,39.73
2019-02-19T08:20:40.548Z,39.65
2019-02-19T08:25:43.223Z,39.59
2019-02-19T08:30:45.893Z,39.56
2019-02-19T08:35:48.540Z,39.53
2019-02-19T08:40:51.229Z,39.47
2019-02-19T08:45:53.896Z,39.43
2019-02-19T08:50:56.598Z,39.40
2019-02-19T08:55:59.249Z,39.40
2019-02-19T09:01:01.923Z,39.38
2019-02-19T09:06:04.592Z,39.33
2019-02-19T09:11:07.292Z,39.34
2019-02-19T09:16:09.989Z,39.27
2019-02-19T09:21:12.637Z,39.18
2019-02-19T09:26:15.300Z,39.19
2019-02-19T09:31:17.968Z,39.15
2019-02-19T09:36:20.636Z,39.13
2019-02-19T09:41:23.287Z,39.13
2019-02-19T09:46:25.959Z,39.13
2019-02-19T09:51:28.631Z,39.18
2019-02-19T09:56:31.296Z,39.14
2019-02-19T10:01:34.024Z,39.10
2019-02-19T10:06:36.692Z,39.11
2019-02-19T10:11:39.353Z,39.06
2019-02-19T10:16:42.241Z,39.04
2019-02-19T10:21:45.759Z,38.99
2019-02-19T10:26:49.695Z,39.00
2019-02-19T10:31:52.468Z,39.03
2019-02-19T10:36:55.135Z,38.99
2019-02-19T10:41:57.793Z,39.00
2019-02-19T10:47:00.471Z,39.02
2019-02-19T10:52:03.144Z,39.04
2019-02-19T10:57:05.839Z,39.01
2019-02-19T11:02:08.496Z,39.01
2019-02-19T11:07:11.164Z,39.00
2019-02-19T11:12:13.829Z,38.98
2019-02-19T11:17:16.491Z,38.93
2019-02-19T11:22:19.172Z,38.91
2019-02-19T11:27:21.839Z,38.83
2019-02-19T11:32:26.283Z,38.79
2019-02-19T11:37:28.788Z,38.73
2019-02-19T11:42:31.452Z,38.66
2019-02-19T11:47:34.119Z,38.63
2019-02-19T11:52:36.775Z,38.60
2019-02-19T11:57:39.428Z,38.51
2019-02-19T12:02:42.124Z,38.43
2019-02-19T12:07:44.791Z,38.33
2019-02-19T12:12:47.460Z,38.28
2019-02-19T12:17:50.131Z,38.32
2019-02-19T12:22:52.780Z,38.32
2019-02-19T12:27:55.430Z,38.30
2019-02-19T12:32:58.072Z,38.20
2019-02-19T12:38:00.729Z,38.18
2019-02-19T12:43:03.385Z,38.20
2019-02-19T12:48:06.069Z,38.23
2019-02-19T12:53:08.744Z,38.25
2019-02-19T12:58:11.419Z,38.30
2019-02-19T13:03:14.088Z,38.29
2019-02-19T13:08:16.847Z,38.26
2019-02-19T13:13:19.522Z,38.22
2019-02-19T13:18:22.224Z,38.24
2019-02-19T13:23:24.869Z,38.27
2019-02-19T13:28:27.528Z,38.23
2019-02-19T13:33:30.212Z,38.25
2019-02-19T13:38:33.764Z,38.25
2019-02-19T13:43:36.434Z,38.25
2019-02-19T13:48:39.093Z,38.24
2019-02-19T13:53:43.400Z,38.21
2019-02-19T13:58:46.068Z,38.16
2019-02-19T14:03:48.736Z,38.00
2019-02-19T14:08:51.448Z,37.67
2019-02-19T14:13:55.700Z,37.24
2019-02-19T14:19:00.000Z,37.32
2019-02-19T14:29:28.078Z,37.40
2019-02-19T14:34:50.520Z,37.72
2019-02-19T14:40:13.337Z,37.79
2019-02-19T14:45:20.616Z,37.87
2019-02-19T14:50:41.420Z,37.91
2019-02-19T14:55:48.452Z,38.00
2019-02-19T15:01:09.316Z,38.04
2019-02-19T15:06:25.694Z,38.11
2019-02-19T15:11:46.587Z,38.18
2019-02-19T15:16:56.712Z,38.36
2019-02-19T15:22:04.047Z,38.39
2019-02-19T15:27:20.184Z,38.65
2019-02-19T15:32:36.785Z,39.09
2019-02-19T15:43:03.736Z,39.64
2019-02-19T15:48:14.020Z,39.95
2019-02-19T15:53:34.573Z,40.21
2019-02-19T15:58:54.025Z,40.51
2019-02-19T16:04:04.209Z,40.47
2019-02-19T16:09:08.445Z,40.54
2019-02-19T16:19:30.063Z,40.59
2019-02-19T16:24:40.057Z,40.66
2019-02-19T16:29:56.848Z,40.75
2019-02-19T16:35:07.401Z,40.73
2019-02-19T16:40:11.745Z,40.79
2019-02-19T16:45:19.044Z,40.85
2019-02-19T16:50:38.388Z,40.80
2019-02-19T16:55:59.004Z,40.77
2019-02-19T17:01:03.361Z,40.84
2019-02-19T17:06:07.639Z,40.99
2019-02-19T17:11:18.127Z,40.92
2019-02-19T17:21:51.429Z,40.93
2019-02-19T17:26:55.708Z,41.11
2019-02-19T17:32:00.024Z,41.19
2019-02-19T17:37:07.063Z,41.15
2019-02-19T17:42:11.380Z,41.19
2019-02-19T17:47:27.853Z,41.25
2019-02-19T17:52:32.161Z,41.32
2019-02-19T17:57:52.769Z,41.29
2019-02-19T18:03:11.884Z,41.39
2019-02-19T18:08:19.318Z,41.38
2019-02-19T18:13:23.621Z,41.38
2019-02-19T18:18:30.879Z,41.46
2019-02-19T18:23:33.548Z,41.49
2019-02-19T18:28:36.270Z,41.63
2019-02-19T18:33:38.903Z,41.78
2019-02-19T18:38:41.572Z,41.73
2019-02-19T18:43:44.269Z,41.61
2019-02-19T18:48:46.944Z,41.64
2019-02-19T18:53:49.598Z,41.89
2019-02-19T18:58:52.269Z,42.10
2019-02-19T19:03:54.937Z,42.25
2019-02-19T19:08:57.611Z,42.29
2019-02-19T19:14:00.264Z,42.45
2019-02-19T19:19:02.902Z,42.51
2019-02-19T19:24:05.595Z,42.48
2019-02-19T19:29:08.247Z,42.45
2019-02-19T19:34:10.914Z,42.37
2019-02-19T19:39:13.588Z,42.24
2019-02-19T19:44:16.276Z,42.09
2019-02-19T19:49:18.937Z,42.08
2019-02-19T19:54:21.649Z,41.97
2019-02-19T19:59:24.308Z,41.97
2019-02-19T20:04:26.965Z,41.84
2019-02-19T20:09:29.609Z,41.89
2019-02-19T20:14:32.574Z,41.82
2019-02-19T20:19:35.262Z,41.74
2019-02-19T20:24:37.944Z,41.66
2019-02-19T20:29:40.583Z,41.62
2019-02-19T20:34:43.268Z,41.61
2019-02-19T20:39:45.980Z,42.49
2019-02-19T20:44:48.640Z,43.88
2019-02-19T20:49:51.294Z,44.10
2019-02-19T20:54:53.950Z,43.96
2019-02-19T20:59:56.604Z,44.01
2019-02-19T21:04:59.275Z,44.02
2019-02-19T21:10:01.925Z,44.08
2019-02-19T21:15:04.966Z,44.12
2019-02-19T21:20:08.592Z,43.99
2019-02-19T21:25:11.321Z,43.97
2019-02-19T21:30:14.773Z,44.15
2019-02-19T21:35:17.461Z,44.02
2019-02-19T21:40:20.152Z,43.87
2019-02-19T21:45:22.817Z,43.73
2019-02-19T21:50:25.476Z,43.71
2019-02-19T21:55:28.148Z,43.63
2019-02-19T22:00:30.820Z,43.55
2019-02-19T22:05:33.483Z,43.45
2019-02-19T22:10:36.153Z,43.33
2019-02-19T22:15:38.819Z,43.24
2019-02-19T22:20:46.114Z,43.12
2019-02-19T22:25:48.789Z,43.05
2019-02-19T22:30:51.465Z,42.96
2019-02-19T22:35:54.147Z,42.82
2019-02-19T22:40:56.807Z,42.81
2019-02-19T22:45:59.513Z,42.71
2019-02-19T22:51:02.176Z,42.60
2019-02-19T22:56:09.453Z,42.57
2019-02-19T23:01:14.237Z,42.41
2019-02-19T23:06:16.949Z,42.29
2019-02-19T23:11:19.615Z,42.30
2019-02-19T23:16:22.380Z,42.10
2019-02-19T23:21:25.075Z,41.92
2019-02-19T23:26:27.751Z,41.93
2019-02-19T23:31:30.408Z,42.72
2019-02-19T23:36:34.722Z,42.57
2019-02-19T23:41:37.433Z,42.42
2019-02-19T23:46:40.113Z,42.42
2019-02-19T23:51:42.758Z,42.35
2019-02-19T23:56:45.426Z,42.27
